Terminal Aerodrome Forecast
Issued by NWS

Home | Current Version | Previous Version | Text Only | Print | Product List | Glossary On
Versions: 1 2 3 4 5 6 7 8 9 10 11 12 13 14 15 16
298
FTAK31 PAJN 221129
TAFAJN
TAF
PAJN 221129Z 2212/2312 08004KT P6SM BKN090
     FM222200 09005KT 6SM -SN SCT020 OVC035
      TEMPO 2222/2302 2SM -SN SCT007 OVC015
     FM230200 11007KT 1SM -SN SCT003 BKN007 OVC012
     FM231000 09005KT 3SM -SN SCT010 OVC020=

USA.gov is the U.S. government's official web portal to all federal, state and local government web resources and services.